TAF Espana - 19 Feb 2018 - 0157 UTC - RocketRoute WX - rrwx.com
LEAL 182300Z 1900/1924 VRB03KT 9999 FEW012 BKN025 TX16/1912Z TN08/1906Z PROB30 TEMPO 1900/1908 3000 BR BKN012 TEMPO 1902/1908 36007KT BECMG 1912/1914 12008KT BECMG 1918/1920 29007KT LEAM 182000Z 1821/1921 07010KT 9999 SCT040 TX17/1914Z TN11/1906Z BECMG 1822/1824 34005KT BECMG 1911/1913 09010KT LEAS 182000Z 1821/1921 25007KT 9999 SCT010 BKN050 TX12/1914Z TN08/1905Z PROB30 TEMPO 1821/1910 BKN010 TEMPO 1910/1918 31010KT PROB30 TEMPO 1821/1921 RA LEBZ 182300Z 1900/1924 02007KT CAVOK TX18/1915Z TN03/1907Z LEBL 182300Z 1900/1924 34008KT 9999 SCT030 TX14/1912Z TN07/1906Z PROB40 TEMPO 1904/1910 33010G20KT BECMG 1910/1912 10007KT TEMPO 1910/1917 BKN014 BECMG 1918/1920 VRB03KT LEBB 182300Z 1900/1924 30008KT 9999 -RA SCT010 BKN025 TX12/1914Z TN09/1906Z TEMPO 1900/1924 3000 RA BKN010 LEGR 182000Z 1821/1921 27004KT 9999 FEW050 TX17/1914Z TN02/1907Z LEIB 182000Z 1821/1921 05005KT 9999 BKN020 TX15/1913Z TN07/1906Z TEMPO 1821/1909 3000 BR BKN014 BECMG 1910/1912 22009KT FEW020 LEJR 182300Z 1900/1924 VRB03KT 9999 FEW025 TX20/1915Z TN06/1907Z PROB40 TEMPO 1900/1909 4000 BR BKN010 PROB30 TEMPO 1900/1909 0200 FG VV001 LELN 181700Z 1818/1903 01010KT 9999 FEW045 LEMD 182300Z 1900/2006 02006KT 9999 SCT050 TX15/1915Z TN03/1906Z TEMPO 1912/1918 01010KT PROB30 TEMPO 1913/1918 01012G22KT LEMG 182300Z 1900/1924 29006KT 9999 SCT020 TX17/1914Z TN11/1907Z PROB40 TEMPO 1900/1908 4000 RA BR BKN014 BECMG 1912/1914 13007KT BECMG 1922/1924 29006KT LEMH 182000Z 1821/1921 35006KT 9999 SCT030 TX15/1913Z TN06/1906Z TEMPO 1909/1915 26008KT PROB40 TEMPO 1911/1917 RA BKN020 LELC 182300Z 1900/1924 01004KT 9999 SCT015 TX17/1915Z TN09/1907Z BECMG 1911/1913 08010KT PROB40 TEMPO 1900/1906 BKN014 LEPA 182300Z 1900/1924 VRB03KT 9999 SCT020 TX14/1912Z TN05/1906Z PROB30 TEMPO 1900/1908 4000 BR BKN012 PROB30 TEMPO 1906/1918 RA BKN020 BECMG 1910/1912 22008KT BECMG 1917/1919 VRB03KT LERS 182000Z 1821/1921 VRB03KT 9999 FEW030 TX16/1913Z TN06/1906Z TEMPO 1902/1908 4000 BR BECMG 1910/1912 14009KT BECMG 1910/1912 15008KT LEXJ 182000Z 1821/1921 28007KT 9999 SCT005 BKN020 TX12/1914Z TN08/1905Z TEMPO 1821/1921 3000 RA BKN010 PROB40 TEMPO 1912/1918 30015G25KT LEST 182300Z 1900/1924 03006KT 9999 FEW030 TX11/1914Z TN05/1924Z TEMPO 1900/1909 3000 BR PROB40 TEMPO 1902/1908 0800 BCFG BKN005 PROB30 TEMPO 1903/1908 0350 FG VV001 LEZL 182000Z 1821/1921 05006KT 9999 FEW020 TX20/1915Z TN06/1907Z PROB40 TEMPO 1902/1908 4000 BR LEVC 182300Z 1900/1924 VRB03KT 9999 SCT040 TX18/1913Z TN06/1906Z PROB30 TEMPO 1900/1908 4000 BR TEMPO 1914/1918 12008KT TEMPO 1922/1924 31007KT LEVD 182300Z 1900/1924 06006KT 9999 SCT040 TX11/1915Z TN00/1906Z TEMPO 1912/1918 01012KT LEVT 182300Z 1900/1924 31007KT 9999 SCT015 BKN030 TX09/1914Z TN05/1906Z PROB40 TEMPO 1900/1924 3000 RA BKN010 LEZG 182300Z 1900/1924 29015KT 9999 BKN040 TX14/1913Z TN07/1907Z PROB30 TEMPO 1900/1908 RA BKN030 TEMPO 1911/1922 30020G32KT GCLP 182000Z 1821/1921 33012KT 9999 FEW030 TX20/1914Z TN15/1906Z BECMG 1910/1912 03015KT GCRR 182000Z 1821/1921 35012KT 9999 FEW030 TX20/1914Z TN13/1906Z GCXO 182000Z 1821/1921 33012KT 9999 SCT015 TX15/1914Z TN09/1906Z PROB40 TEMPO 1909/1912 4500 DZRA BKN005 GCTS 182000Z 1821/1921 09015KT 9999 FEW035 TX22/1914Z TN13/1906Z BECMG 1821/1822 36005KT

RocketRoute WX - rrwx.com weather for pilots